createdAt,value
2018-05-12T00:01:10.904Z,82.77
2018-05-12T00:03:38.407Z,82.73
2018-05-12T00:06:05.874Z,82.77
2018-05-12T00:08:33.369Z,82.66
2018-05-12T00:11:00.853Z,82.95
2018-05-12T00:13:28.332Z,82.75
2018-05-12T00:15:55.796Z,82.57
2018-05-12T00:18:23.281Z,82.80
2018-05-12T00:20:50.753Z,82.94
2018-05-12T00:23:18.226Z,83.04
2018-05-12T00:25:45.742Z,82.96
2018-05-12T00:28:13.210Z,83.20
2018-05-12T00:30:40.702Z,83.10
2018-05-12T00:33:08.190Z,83.25
2018-05-12T00:35:35.672Z,83.11
2018-05-12T00:38:03.143Z,83.01
2018-05-12T00:40:30.637Z,82.86
2018-05-12T00:42:58.210Z,83.04
2018-05-12T00:45:25.629Z,82.64
2018-05-12T00:47:53.096Z,82.59
2018-05-12T00:50:20.570Z,82.57
2018-05-12T00:52:48.058Z,82.30
2018-05-12T00:55:15.552Z,81.89
2018-05-12T00:57:43.050Z,82.01
2018-05-12T01:00:10.525Z,82.70
2018-05-12T01:02:38.016Z,82.52
2018-05-12T01:05:05.488Z,83.13
2018-05-12T01:07:33.001Z,83.01
2018-05-12T01:10:00.472Z,83.04
2018-05-12T01:12:27.946Z,82.92
2018-05-12T01:14:55.452Z,83.35
2018-05-12T01:17:22.941Z,83.50
2018-05-12T01:19:50.416Z,83.68
2018-05-12T01:22:17.892Z,84.01
2018-05-12T01:24:45.392Z,83.82
2018-05-12T01:27:12.869Z,83.77
2018-05-12T01:29:40.362Z,83.81
2018-05-12T01:32:07.852Z,83.93
2018-05-12T01:34:35.331Z,83.63
2018-05-12T01:37:02.811Z,83.71
2018-05-12T01:39:30.275Z,83.96
2018-05-12T01:41:57.748Z,84.32
2018-05-12T01:44:25.216Z,84.51
2018-05-12T01:46:52.688Z,84.77
2018-05-12T01:49:20.158Z,85.21
2018-05-12T01:51:47.661Z,85.26
2018-05-12T01:54:15.130Z,85.06
2018-05-12T01:56:42.623Z,85.15
2018-05-12T01:59:10.122Z,85.66
2018-05-12T02:01:37.585Z,85.35
2018-05-12T02:04:05.078Z,85.56
2018-05-12T02:06:32.558Z,85.43
2018-05-12T02:09:00.057Z,85.96
2018-05-12T02:11:27.544Z,86.03
2018-05-12T02:13:55.016Z,86.21
2018-05-12T02:16:22.520Z,86.05
2018-05-12T02:18:49.988Z,85.85
2018-05-12T02:21:17.483Z,85.37
2018-05-12T02:23:44.945Z,85.08
2018-05-12T02:26:12.430Z,85.29
2018-05-12T02:28:39.894Z,86.03
2018-05-12T02:31:07.377Z,86.41
2018-05-12T02:33:34.848Z,86.77
2018-05-12T02:36:02.350Z,86.63
2018-05-12T02:38:29.814Z,86.37
2018-05-12T02:40:57.291Z,86.03
2018-05-12T02:43:24.781Z,85.67
2018-05-12T02:45:52.258Z,85.35
2018-05-12T02:48:19.745Z,85.29
2018-05-12T02:50:47.212Z,85.29
2018-05-12T02:53:14.712Z,85.19
2018-05-12T02:55:42.185Z,85.37
2018-05-12T02:58:09.683Z,85.28
2018-05-12T03:00:37.145Z,85.39
2018-05-12T03:03:04.652Z,85.31
2018-05-12T03:05:32.138Z,86.02
2018-05-12T03:07:59.601Z,85.99
2018-05-12T03:10:27.106Z,86.11
2018-05-12T03:12:54.568Z,86.19
2018-05-12T03:15:22.061Z,85.66
2018-05-12T03:17:49.538Z,85.27
2018-05-12T03:20:17.019Z,84.93
2018-05-12T03:22:44.481Z,85.11
2018-05-12T03:25:11.967Z,85.39
2018-05-12T03:27:39.460Z,85.45
2018-05-12T03:30:06.937Z,85.20
2018-05-12T03:32:34.413Z,86.38
2018-05-12T03:35:01.890Z,87.20
2018-05-12T03:37:29.397Z,88.43
2018-05-12T03:39:56.902Z,88.56
2018-05-12T03:42:24.373Z,89.04
2018-05-12T03:44:51.865Z,88.86
2018-05-12T03:47:19.350Z,88.79
2018-05-12T03:49:46.845Z,88.65
2018-05-12T03:52:14.341Z,87.78
2018-05-12T03:54:41.821Z,86.62
2018-05-12T03:57:09.291Z,87.13
2018-05-12T03:59:36.822Z,88.00
2018-05-12T04:02:04.297Z,87.12
2018-05-12T04:04:43.610Z,85.89
2018-05-12T04:07:22.758Z,85.41
2018-05-12T04:10:02.093Z,85.54
2018-05-12T04:12:44.423Z,86.31
2018-05-12T04:15:11.917Z,88.21
2018-05-12T04:17:39.419Z,87.41
2018-05-12T04:20:06.951Z,86.99
2018-05-12T04:22:34.426Z,87.14
2018-05-12T04:25:02.055Z,87.62
2018-05-12T04:27:29.554Z,88.00
2018-05-12T04:29:57.025Z,88.06
2018-05-12T04:32:24.524Z,88.03
2018-05-12T04:34:51.981Z,87.45
2018-05-12T04:37:19.461Z,87.10
2018-05-12T04:39:46.996Z,87.29
2018-05-12T04:42:14.528Z,87.89
2018-05-12T04:44:42.007Z,87.08
2018-05-12T04:47:09.474Z,87.49
2018-05-12T04:49:36.963Z,86.87
2018-05-12T04:52:04.429Z,86.96
2018-05-12T04:54:32.657Z,86.46
2018-05-12T04:57:00.133Z,86.09
2018-05-12T04:59:27.629Z,86.23
2018-05-12T05:01:55.109Z,86.36
2018-05-12T05:04:22.592Z,86.84
2018-05-12T05:06:50.074Z,86.10
2018-05-12T05:09:17.552Z,85.74
2018-05-12T05:11:45.035Z,86.39
2018-05-12T05:14:12.503Z,85.99
2018-05-12T05:16:39.993Z,86.57
2018-05-12T05:19:07.500Z,86.29
2018-05-12T05:21:35.001Z,86.23
2018-05-12T05:24:02.473Z,86.13
2018-05-12T05:26:29.985Z,84.61
2018-05-12T05:28:57.461Z,83.49
2018-05-12T05:31:24.929Z,83.77
2018-05-12T05:33:52.416Z,83.70
2018-05-12T05:36:19.907Z,83.18
2018-05-12T05:38:47.401Z,83.52
2018-05-12T05:41:14.870Z,83.56
2018-05-12T05:43:42.347Z,83.13
2018-05-12T05:46:09.834Z,82.41
2018-05-12T05:48:37.348Z,81.94
2018-05-12T05:51:04.847Z,82.20
2018-05-12T05:53:32.322Z,81.92
2018-05-12T05:55:59.826Z,82.24
2018-05-12T05:58:27.377Z,81.77
2018-05-12T06:00:54.833Z,81.39
2018-05-12T06:03:22.322Z,81.33
2018-05-12T06:05:49.838Z,81.87
2018-05-12T06:08:17.298Z,81.63
2018-05-12T06:10:44.828Z,81.08
2018-05-12T06:13:12.362Z,80.69
2018-05-12T06:15:39.840Z,80.28
2018-05-12T06:18:07.355Z,79.95
2018-05-12T06:20:34.868Z,79.31
2018-05-12T06:23:02.414Z,79.06
2018-05-12T06:25:29.862Z,78.67
2018-05-12T06:27:57.468Z,78.13
2018-05-12T06:30:24.927Z,77.51
2018-05-12T06:32:52.412Z,77.20
2018-05-12T06:35:19.947Z,77.40
2018-05-12T06:37:47.429Z,77.04
2018-05-12T06:40:14.929Z,76.71
2018-05-12T06:42:42.410Z,76.29
2018-05-12T06:45:09.905Z,76.84
2018-05-12T06:47:37.392Z,76.26
2018-05-12T06:50:05.068Z,76.30
2018-05-12T06:52:32.573Z,76.59
2018-05-12T06:55:00.062Z,76.76
2018-05-12T06:57:27.553Z,76.39
2018-05-12T06:59:55.045Z,76.50
2018-05-12T07:02:22.582Z,76.73
2018-05-12T07:04:50.075Z,76.06
2018-05-12T07:07:17.577Z,76.22
2018-05-12T07:09:45.067Z,76.29
2018-05-12T07:12:12.587Z,76.11
2018-05-12T07:14:40.089Z,75.71
2018-05-12T07:17:07.563Z,75.47
2018-05-12T07:19:35.040Z,75.09
2018-05-12T07:22:02.566Z,75.04
2018-05-12T07:24:30.045Z,74.38
2018-05-12T07:26:57.554Z,75.13
2018-05-12T07:29:25.062Z,73.71
2018-05-12T07:31:52.559Z,73.49
2018-05-12T07:34:20.075Z,74.06
2018-05-12T07:36:47.570Z,73.51
2018-05-12T07:39:15.062Z,72.19
2018-05-12T07:41:42.565Z,71.73
2018-05-12T07:44:10.038Z,71.98
2018-05-12T07:46:37.542Z,72.13
2018-05-12T07:49:05.017Z,71.81
2018-05-12T07:51:32.520Z,71.26
2018-05-12T07:54:00.002Z,70.83
2018-05-12T07:56:27.484Z,68.74
2018-05-12T07:58:54.968Z,68.54
2018-05-12T08:01:22.498Z,66.15
2018-05-12T08:03:49.957Z,66.76
2018-05-12T08:06:17.474Z,67.05
2018-05-12T08:08:45.004Z,67.43
2018-05-12T08:11:13.106Z,67.17
2018-05-12T08:13:40.605Z,66.42
2018-05-12T08:16:08.078Z,66.85
2018-05-12T08:18:35.574Z,67.07
2018-05-12T08:21:03.052Z,67.12
2018-05-12T08:23:30.538Z,67.62
2018-05-12T08:25:58.037Z,66.94
2018-05-12T08:28:25.542Z,67.01
2018-05-12T08:30:53.035Z,66.00
2018-05-12T08:33:20.502Z,65.42
2018-05-12T08:35:48.019Z,65.09
2018-05-12T08:38:15.480Z,65.15
2018-05-12T08:40:43.011Z,65.69
2018-05-12T08:43:10.492Z,64.47
2018-05-12T08:45:38.172Z,64.46
2018-05-12T08:48:05.725Z,64.82
2018-05-12T08:50:33.240Z,63.79
2018-05-12T08:53:00.710Z,63.78
2018-05-12T08:55:28.514Z,64.25
2018-05-12T08:57:56.019Z,63.47
2018-05-12T09:00:23.502Z,64.18
2018-05-12T09:02:51.008Z,62.97
2018-05-12T09:05:18.497Z,62.10
2018-05-12T09:07:46.002Z,62.21
2018-05-12T09:10:13.582Z,63.14
2018-05-12T09:12:41.093Z,64.43
2018-05-12T09:15:08.567Z,61.62
2018-05-12T09:17:36.053Z,61.95
2018-05-12T09:20:03.525Z,61.48
2018-05-12T09:22:31.041Z,61.55
2018-05-12T09:24:58.529Z,60.83
2018-05-12T09:27:26.030Z,59.62
2018-05-12T09:29:53.522Z,59.89
2018-05-12T09:32:21.020Z,61.59
2018-05-12T09:34:48.521Z,60.49
2018-05-12T09:37:16.043Z,60.42
2018-05-12T09:39:43.493Z,59.05
2018-05-12T09:42:11.019Z,59.84
2018-05-12T09:44:38.512Z,62.20
2018-05-12T09:47:05.998Z,61.80
2018-05-12T09:49:33.477Z,59.48
2018-05-12T09:52:00.971Z,58.83
2018-05-12T09:54:28.443Z,58.31
2018-05-12T09:56:55.933Z,58.45
2018-05-12T09:59:23.426Z,56.95
2018-05-12T10:01:50.912Z,57.50
2018-05-12T10:04:18.375Z,57.75
2018-05-12T10:06:45.863Z,58.10
2018-05-12T10:09:13.389Z,56.07
2018-05-12T10:11:40.897Z,59.58
2018-05-12T10:14:08.372Z,57.65
2018-05-12T10:16:35.875Z,57.12
2018-05-12T10:19:03.373Z,56.26
2018-05-12T10:21:30.882Z,56.23
2018-05-12T10:23:58.409Z,55.14
2018-05-12T10:26:25.893Z,55.22
2018-05-12T10:28:53.388Z,54.76
2018-05-12T10:31:20.911Z,53.91
2018-05-12T10:33:48.390Z,54.77
2018-05-12T10:36:15.853Z,53.54
2018-05-12T10:38:43.347Z,56.40
2018-05-12T10:41:10.822Z,54.03
2018-05-12T10:43:38.314Z,54.50
2018-05-12T10:46:05.820Z,54.12
2018-05-12T10:48:33.306Z,54.88
2018-05-12T10:51:00.802Z,55.50
2018-05-12T10:53:28.277Z,54.29
2018-05-12T10:55:55.767Z,54.57
2018-05-12T10:58:23.229Z,53.75
2018-05-12T11:00:50.753Z,52.47
2018-05-12T11:03:18.221Z,52.00
2018-05-12T11:05:45.692Z,52.74
2018-05-12T11:08:13.209Z,52.01
2018-05-12T11:10:40.679Z,51.85
2018-05-12T11:13:08.170Z,53.18
2018-05-12T11:15:35.630Z,50.82
2018-05-12T11:18:03.120Z,50.99
2018-05-12T11:20:30.589Z,52.88
2018-05-12T11:22:58.084Z,50.09
2018-05-12T11:25:25.596Z,51.18
2018-05-12T11:27:53.117Z,51.73
2018-05-12T11:30:20.617Z,51.83
2018-05-12T11:32:48.091Z,51.28
2018-05-12T11:35:15.584Z,50.26
2018-05-12T11:37:43.067Z,49.02
2018-05-12T11:40:10.594Z,49.38
2018-05-12T11:42:38.083Z,51.25
2018-05-12T11:45:05.565Z,50.82
2018-05-12T11:47:33.069Z,50.63
2018-05-12T11:50:00.546Z,49.24
2018-05-12T11:52:28.024Z,48.19
2018-05-12T11:54:55.559Z,47.57
2018-05-12T11:57:23.050Z,47.73
2018-05-12T11:59:51.350Z,46.50
2018-05-12T12:02:18.840Z,46.90
2018-05-12T12:04:46.305Z,45.75
2018-05-12T12:07:13.777Z,48.18
2018-05-12T12:09:41.230Z,47.63
2018-05-12T12:12:08.713Z,45.84
2018-05-12T12:14:36.180Z,46.06
2018-05-12T12:17:03.700Z,46.91
2018-05-12T12:19:31.164Z,47.03
2018-05-12T12:21:58.629Z,47.96
2018-05-12T12:24:26.124Z,47.45
2018-05-12T12:26:53.789Z,46.51
2018-05-12T12:29:21.288Z,46.10
2018-05-12T12:31:48.931Z,47.15
2018-05-12T12:34:16.439Z,46.91
2018-05-12T12:36:43.918Z,46.34
2018-05-12T12:39:12.120Z,46.33
2018-05-12T12:41:39.626Z,44.83
2018-05-12T12:44:07.106Z,47.12
2018-05-12T12:46:34.600Z,46.57
2018-05-12T12:51:35.929Z,43.68
2018-05-12T12:54:03.557Z,43.36
2018-05-12T12:56:31.304Z,46.29
2018-05-12T12:58:59.032Z,43.26
2018-05-12T13:01:26.710Z,43.34
2018-05-12T13:03:54.695Z,42.69
2018-05-12T13:06:22.279Z,41.63
2018-05-12T13:08:49.944Z,42.78
2018-05-12T13:11:17.425Z,41.39
2018-05-12T13:13:44.922Z,40.52
2018-05-12T13:16:12.400Z,42.41
2018-05-12T13:18:40.024Z,43.07
2018-05-12T13:21:07.519Z,42.08
2018-05-12T13:23:34.978Z,41.45
2018-05-12T13:26:02.483Z,41.65
2018-05-12T13:28:29.953Z,41.33
2018-05-12T13:30:57.487Z,42.52
2018-05-12T13:33:24.950Z,42.25
2018-05-12T13:35:52.965Z,41.47
2018-05-12T13:38:20.428Z,41.41
2018-05-12T13:40:47.909Z,39.73
2018-05-12T13:43:15.381Z,39.40
2018-05-12T13:45:42.876Z,39.16
2018-05-12T13:48:10.350Z,38.94
2018-05-12T13:50:37.848Z,36.62
2018-05-12T13:53:05.329Z,38.50
2018-05-12T13:55:32.791Z,39.30
2018-05-12T13:58:00.289Z,37.82
2018-05-12T14:00:27.759Z,37.80
2018-05-12T14:02:55.260Z,38.26
2018-05-12T14:05:22.745Z,38.46
2018-05-12T14:07:50.276Z,37.57
2018-05-12T14:10:17.786Z,38.15
2018-05-12T14:12:45.271Z,37.09
2018-05-12T14:15:12.761Z,37.65
2018-05-12T14:17:40.222Z,38.29
2018-05-12T14:20:07.721Z,39.57
2018-05-12T14:22:35.211Z,38.88
2018-05-12T14:25:02.690Z,38.98
2018-05-12T14:27:30.151Z,38.96
2018-05-12T14:29:57.885Z,37.06
2018-05-12T14:32:26.936Z,37.30
2018-05-12T14:34:54.387Z,36.22
2018-05-12T14:37:21.888Z,35.29
2018-05-12T14:39:49.368Z,34.10
2018-05-12T14:42:16.876Z,34.00
2018-05-12T14:44:44.512Z,32.42
2018-05-12T14:47:12.023Z,32.06
2018-05-12T14:49:39.502Z,32.56
2018-05-12T14:52:07.163Z,32.60
2018-05-12T14:54:34.809Z,31.47
2018-05-12T14:57:02.325Z,33.30
2018-05-12T14:59:29.962Z,34.28
2018-05-12T15:01:57.539Z,35.50
2018-05-12T15:04:25.046Z,35.82
2018-05-12T15:06:52.564Z,35.30
2018-05-12T15:09:20.350Z,33.10
2018-05-12T15:11:48.119Z,32.87
2018-05-12T15:14:15.641Z,32.32
2018-05-12T15:16:43.269Z,31.81
2018-05-12T15:19:10.741Z,31.48
2018-05-12T15:21:38.477Z,32.85
2018-05-12T15:24:06.173Z,32.05
2018-05-12T15:26:33.977Z,30.95
2018-05-12T15:29:01.680Z,31.24
2018-05-12T15:31:29.380Z,31.98
2018-05-12T15:33:56.882Z,32.88
2018-05-12T15:36:24.609Z,32.63
2018-05-12T15:38:52.176Z,33.38
2018-05-12T15:41:19.707Z,33.44
2018-05-12T15:43:47.233Z,34.06
2018-05-12T15:46:14.710Z,33.59
2018-05-12T15:48:42.207Z,32.56
2018-05-12T15:51:09.948Z,32.44
2018-05-12T15:53:37.709Z,33.04
2018-05-12T15:56:05.413Z,32.50
2018-05-12T15:58:33.235Z,33.18
2018-05-12T16:01:00.739Z,33.60
2018-05-12T16:03:28.221Z,33.98
2018-05-12T16:05:55.989Z,34.08
2018-05-12T16:08:23.698Z,33.34
2018-05-12T16:10:51.185Z,33.52
2018-05-12T16:13:18.672Z,33.83
2018-05-12T16:15:46.197Z,34.72
2018-05-12T16:18:13.903Z,35.24
2018-05-12T16:20:41.703Z,36.04
2018-05-12T16:23:09.381Z,37.13
2018-05-12T16:25:37.308Z,37.84
2018-05-12T16:28:04.798Z,38.45
2018-05-12T16:30:32.275Z,38.36
2018-05-12T16:32:59.851Z,38.44
2018-05-12T16:35:27.352Z,38.90
2018-05-12T16:37:55.031Z,39.67
2018-05-12T16:40:22.778Z,39.53
2018-05-12T16:42:50.578Z,39.11
2018-05-12T16:45:18.079Z,39.28
2018-05-12T16:47:45.609Z,39.66
2018-05-12T16:50:13.145Z,39.90
2018-05-12T16:52:40.620Z,39.90
2018-05-12T16:55:08.150Z,39.93
2018-05-12T16:57:35.623Z,40.17
2018-05-12T17:00:03.155Z,40.67
2018-05-12T17:02:30.636Z,40.00
2018-05-12T17:04:58.341Z,40.52
2018-05-12T17:07:26.155Z,42.03
2018-05-12T17:09:53.671Z,42.39
2018-05-12T17:12:21.312Z,43.38
2018-05-12T17:14:49.013Z,42.85
2018-05-12T17:17:16.509Z,43.06
2018-05-12T17:19:43.993Z,43.27
2018-05-12T17:22:11.581Z,44.11
2018-05-12T17:24:39.044Z,44.75
2018-05-12T17:27:06.773Z,44.98
2018-05-12T17:29:34.671Z,45.45
2018-05-12T17:32:02.429Z,45.64
2018-05-12T17:34:30.320Z,46.12
2018-05-12T17:36:57.782Z,46.42
2018-05-12T17:39:25.482Z,46.96
2018-05-12T17:41:53.001Z,47.20
2018-05-12T17:44:20.861Z,47.45
2018-05-12T17:46:48.353Z,47.79
2018-05-12T17:49:15.835Z,48.03
2018-05-12T17:51:43.469Z,48.36
2018-05-12T17:54:11.265Z,48.64
2018-05-12T17:56:40.203Z,48.98
2018-05-12T17:59:08.013Z,49.21
2018-05-12T18:01:35.791Z,49.04
2018-05-12T18:04:03.277Z,49.08
2018-05-12T18:06:30.749Z,48.94
2018-05-12T18:08:58.240Z,49.20
2018-05-12T18:11:26.108Z,49.27
2018-05-12T18:13:53.587Z,49.34
2018-05-12T18:16:21.306Z,49.39
2018-05-12T18:18:49.023Z,49.53
2018-05-12T18:21:16.534Z,49.84
2018-05-12T18:23:44.206Z,49.97
2018-05-12T18:26:11.901Z,50.20
2018-05-12T18:28:39.373Z,50.47
2018-05-12T18:31:07.309Z,50.58
2018-05-12T18:33:34.840Z,50.72
2018-05-12T18:36:02.374Z,50.87
2018-05-12T18:38:29.870Z,51.14
2018-05-12T18:40:57.329Z,51.35
2018-05-12T18:43:24.827Z,51.68
2018-05-12T18:45:52.661Z,51.75
2018-05-12T18:48:20.217Z,52.10
2018-05-12T18:50:47.731Z,52.54
2018-05-12T18:53:15.289Z,52.73
2018-05-12T18:55:43.046Z,52.56
2018-05-12T18:58:10.850Z,52.84
2018-05-12T19:00:38.328Z,53.21
2018-05-12T19:03:06.059Z,53.28
2018-05-12T19:05:33.786Z,53.47
2018-05-12T19:08:01.399Z,53.72
2018-05-12T19:10:29.922Z,53.81
2018-05-12T19:12:57.391Z,54.12
2018-05-12T19:15:25.242Z,54.64
2018-05-12T19:17:52.952Z,55.15
2018-05-12T19:20:20.760Z,55.70
2018-05-12T19:22:48.576Z,55.81
2018-05-12T19:25:16.178Z,55.94
2018-05-12T19:27:43.664Z,56.35
2018-05-12T19:30:11.575Z,57.29
2018-05-12T19:32:39.190Z,56.55
2018-05-12T19:35:06.619Z,56.80
2018-05-12T19:37:34.105Z,57.21
2018-05-12T19:40:02.032Z,57.42
2018-05-12T19:42:29.532Z,58.08
2018-05-12T19:44:57.019Z,57.92
2018-05-12T19:47:24.584Z,57.95
2018-05-12T19:49:52.100Z,58.25
2018-05-12T19:52:20.058Z,58.49
2018-05-12T19:54:47.594Z,58.73
2018-05-12T19:57:15.065Z,58.66
2018-05-12T19:59:42.563Z,58.66
2018-05-12T20:02:10.271Z,58.80
2018-05-12T20:04:37.758Z,59.16
2018-05-12T20:07:05.237Z,59.22
2018-05-12T20:09:32.739Z,59.48
2018-05-12T20:12:00.219Z,59.64
2018-05-12T20:14:28.401Z,59.86
2018-05-12T20:16:56.473Z,60.30
2018-05-12T20:19:24.002Z,60.52
2018-05-12T20:21:51.512Z,60.84
2018-05-12T20:24:19.652Z,61.13
2018-05-12T20:26:47.358Z,61.03
2018-05-12T20:29:14.851Z,61.59
2018-05-12T20:31:42.369Z,61.52
2018-05-12T20:34:09.885Z,61.51
2018-05-12T20:36:37.587Z,61.75
2018-05-12T20:39:05.328Z,61.51
2018-05-12T20:41:33.286Z,61.65
2018-05-12T20:44:00.762Z,61.78
2018-05-12T20:46:28.309Z,62.30
2018-05-12T20:48:55.974Z,62.38
2018-05-12T20:51:23.939Z,62.41
2018-05-12T20:53:51.884Z,62.54
2018-05-12T20:56:19.406Z,62.69
2018-05-12T20:58:47.210Z,62.55
2018-05-12T21:01:14.708Z,62.61
2018-05-12T21:03:42.209Z,62.65
2018-05-12T21:06:09.690Z,62.56
2018-05-12T21:08:37.209Z,62.69
2018-05-12T21:11:04.898Z,62.55
2018-05-12T21:13:32.685Z,62.65
2018-05-12T21:16:00.199Z,62.59
2018-05-12T21:18:27.664Z,62.87
2018-05-12T21:20:55.499Z,63.26
2018-05-12T21:23:23.211Z,63.00
2018-05-12T21:25:50.711Z,63.02
2018-05-12T21:28:18.429Z,63.14
2018-05-12T21:30:46.058Z,63.43
2018-05-12T21:33:13.557Z,63.43
2018-05-12T21:35:41.252Z,63.63
2018-05-12T21:38:08.848Z,63.85
2018-05-12T21:40:36.610Z,64.19
2018-05-12T21:43:04.355Z,64.29
2018-05-12T21:45:31.849Z,64.62
2018-05-12T21:47:59.358Z,64.61
2018-05-12T21:50:27.020Z,64.91
2018-05-12T21:52:54.518Z,65.18
2018-05-12T21:55:22.001Z,65.49
2018-05-12T21:57:49.754Z,65.54
2018-05-12T22:00:17.227Z,65.71
2018-05-12T22:02:44.705Z,65.77
2018-05-12T22:05:12.207Z,65.79
2018-05-12T22:07:39.742Z,66.20
2018-05-12T22:10:07.250Z,66.13
2018-05-12T22:12:34.714Z,66.31
2018-05-12T22:15:02.186Z,66.74
2018-05-12T22:17:29.700Z,66.89
2018-05-12T22:19:57.175Z,66.87
2018-05-12T22:22:24.632Z,66.97
2018-05-12T22:24:52.116Z,67.10
2018-05-12T22:27:19.590Z,67.03
2018-05-12T22:29:47.076Z,67.07
2018-05-12T22:32:14.529Z,67.06
2018-05-12T22:34:42.032Z,67.13
2018-05-12T22:37:09.489Z,67.22
2018-05-12T22:39:37.050Z,67.35
2018-05-12T22:42:04.506Z,67.34
2018-05-12T22:44:31.992Z,67.19
2018-05-12T22:46:59.475Z,67.00
2018-05-12T22:49:26.956Z,67.38
2018-05-12T22:51:54.443Z,67.68
2018-05-12T22:54:22.122Z,68.00
2018-05-12T22:56:49.639Z,67.88
2018-05-12T22:59:17.121Z,68.09
2018-05-12T23:01:44.601Z,68.31
2018-05-12T23:04:12.062Z,68.61
2018-05-12T23:06:39.562Z,68.63
2018-05-12T23:09:07.085Z,68.96
2018-05-12T23:11:34.600Z,68.97
2018-05-12T23:14:02.077Z,69.12
2018-05-12T23:16:29.561Z,69.42
2018-05-12T23:18:57.033Z,69.77
2018-05-12T23:21:24.523Z,69.89
2018-05-12T23:23:52.013Z,69.64
2018-05-12T23:26:19.502Z,70.25
2018-05-12T23:28:46.986Z,70.18
2018-05-12T23:31:14.461Z,70.21
2018-05-12T23:33:41.963Z,70.55
2018-05-12T23:36:09.453Z,70.62
2018-05-12T23:38:36.922Z,70.86
2018-05-12T23:41:04.417Z,70.84
2018-05-12T23:43:31.892Z,70.80
2018-05-12T23:45:59.375Z,70.88
2018-05-12T23:48:27.030Z,70.89
2018-05-12T23:50:54.520Z,71.48
2018-05-12T23:53:21.990Z,71.36
2018-05-12T23:55:49.490Z,70.96
2018-05-12T23:58:17.049Z,71.41
